sensor_id;sensor_type;location;lat;lon;timestamp;P1;durP1;ratioP1;P2;durP2;ratioP2
11113;SDS011;5610;52.154;9.198;2023-03-11T00:00:17;10.30;;;8.60;;
11113;SDS011;5610;52.154;9.198;2023-03-11T00:03:04;10.50;;;9.20;;
11113;SDS011;5610;52.154;9.198;2023-03-11T00:05:51;9.90;;;7.85;;
11113;SDS011;5610;52.154;9.198;2023-03-11T00:08:37;8.55;;;7.22;;
11113;SDS011;5610;52.154;9.198;2023-03-11T00:11:24;8.70;;;7.30;;
11113;SDS011;5610;52.154;9.198;2023-03-11T00:14:10;8.13;;;7.20;;
11113;SDS011;5610;52.154;9.198;2023-03-11T00:16:56;8.00;;;7.15;;
11113;SDS011;5610;52.154;9.198;2023-03-11T00:19:42;9.25;;;7.10;;
11113;SDS011;5610;52.154;9.198;2023-03-11T00:22:27;7.70;;;6.72;;
11113;SDS011;5610;52.154;9.198;2023-03-11T00:25:12;9.07;;;7.07;;
11113;SDS011;5610;52.154;9.198;2023-03-11T00:27:58;8.68;;;6.65;;
11113;SDS011;5610;52.154;9.198;2023-03-11T00:30:44;8.23;;;6.75;;
11113;SDS011;5610;52.154;9.198;2023-03-11T00:33:32;10.57;;;6.70;;
11113;SDS011;5610;52.154;9.198;2023-03-11T00:36:19;7.78;;;5.80;;
11113;SDS011;5610;52.154;9.198;2023-03-11T00:39:06;8.25;;;6.60;;
11113;SDS011;5610;52.154;9.198;2023-03-11T00:41:53;7.70;;;6.30;;
11113;SDS011;5610;52.154;9.198;2023-03-11T00:44:39;11.30;;;8.13;;
11113;SDS011;5610;52.154;9.198;2023-03-11T00:47:25;7.93;;;6.15;;
11113;SDS011;5610;52.154;9.198;2023-03-11T00:50:13;7.78;;;6.65;;
11113;SDS011;5610;52.154;9.198;2023-03-11T00:53:02;7.55;;;6.22;;
11113;SDS011;5610;52.154;9.198;2023-03-11T00:55:48;11.32;;;7.50;;
11113;SDS011;5610;52.154;9.198;2023-03-11T00:58:34;9.57;;;6.05;;
11113;SDS011;5610;52.154;9.198;2023-03-11T01:01:20;11.75;;;6.57;;
11113;SDS011;5610;52.154;9.198;2023-03-11T01:04:05;7.13;;;6.32;;
11113;SDS011;5610;52.154;9.198;2023-03-11T01:06:52;9.02;;;7.03;;
11113;SDS011;5610;52.154;9.198;2023-03-11T01:09:37;7.03;;;5.60;;
11113;SDS011;5610;52.154;9.198;2023-03-11T01:12:22;7.47;;;5.72;;
11113;SDS011;5610;52.154;9.198;2023-03-11T01:15:10;7.28;;;5.75;;
11113;SDS011;5610;52.154;9.198;2023-03-11T01:18:01;9.23;;;5.95;;
11113;SDS011;5610;52.154;9.198;2023-03-11T01:20:50;6.50;;;5.70;;
11113;SDS011;5610;52.154;9.198;2023-03-11T01:23:37;6.43;;;5.30;;
11113;SDS011;5610;52.154;9.198;2023-03-11T01:26:23;9.93;;;5.82;;
11113;SDS011;5610;52.154;9.198;2023-03-11T01:29:08;6.32;;;5.47;;
11113;SDS011;5610;52.154;9.198;2023-03-11T01:31:53;8.15;;;5.68;;
11113;SDS011;5610;52.154;9.198;2023-03-11T01:34:38;7.78;;;6.30;;
11113;SDS011;5610;52.154;9.198;2023-03-11T01:37:23;7.72;;;5.50;;
11113;SDS011;5610;52.154;9.198;2023-03-11T01:40:13;13.13;;;6.05;;
11113;SDS011;5610;52.154;9.198;2023-03-11T01:43:04;7.18;;;6.20;;
11113;SDS011;5610;52.154;9.198;2023-03-11T01:46:08;7.72;;;5.80;;
11113;SDS011;5610;52.154;9.198;2023-03-11T01:48:58;7.60;;;5.15;;
11113;SDS011;5610;52.154;9.198;2023-03-11T01:51:49;7.70;;;5.45;;
11113;SDS011;5610;52.154;9.198;2023-03-11T01:54:38;6.82;;;6.03;;
11113;SDS011;5610;52.154;9.198;2023-03-11T01:57:27;10.18;;;5.70;;
11113;SDS011;5610;52.154;9.198;2023-03-11T02:00:13;9.18;;;4.95;;
11113;SDS011;5610;52.154;9.198;2023-03-11T02:02:59;7.95;;;5.15;;
11113;SDS011;5610;52.154;9.198;2023-03-11T02:05:50;5.88;;;5.20;;
11113;SDS011;5610;52.154;9.198;2023-03-11T02:08:37;6.57;;;5.63;;
11113;SDS011;5610;52.154;9.198;2023-03-11T02:11:26;9.15;;;5.40;;
11113;SDS011;5610;52.154;9.198;2023-03-11T02:14:17;6.13;;;5.50;;
11113;SDS011;5610;52.154;9.198;2023-03-11T02:17:03;7.68;;;5.50;;
11113;SDS011;5610;52.154;9.198;2023-03-11T02:19:53;7.60;;;5.80;;
11113;SDS011;5610;52.154;9.198;2023-03-11T02:22:55;6.70;;;5.68;;
11113;SDS011;5610;52.154;9.198;2023-03-11T02:25:43;6.05;;;5.45;;
11113;SDS011;5610;52.154;9.198;2023-03-11T02:28:33;5.43;;;5.03;;
11113;SDS011;5610;52.154;9.198;2023-03-11T02:31:21;7.15;;;5.47;;
11113;SDS011;5610;52.154;9.198;2023-03-11T02:34:08;10.75;;;5.97;;
11113;SDS011;5610;52.154;9.198;2023-03-11T02:37:00;6.95;;;5.30;;
11113;SDS011;5610;52.154;9.198;2023-03-11T02:39:49;7.85;;;6.07;;
11113;SDS011;5610;52.154;9.198;2023-03-11T02:42:37;8.05;;;5.40;;
11113;SDS011;5610;52.154;9.198;2023-03-11T02:45:24;5.50;;;5.00;;
11113;SDS011;5610;52.154;9.198;2023-03-11T02:48:10;8.05;;;6.57;;
11113;SDS011;5610;52.154;9.198;2023-03-11T02:50:57;7.32;;;5.03;;
11113;SDS011;5610;52.154;9.198;2023-03-11T02:53:44;9.82;;;6.07;;
11113;SDS011;5610;52.154;9.198;2023-03-11T02:56:33;9.85;;;6.38;;
11113;SDS011;5610;52.154;9.198;2023-03-11T02:59:18;9.68;;;5.65;;
11113;SDS011;5610;52.154;9.198;2023-03-11T03:02:05;14.70;;;5.57;;
11113;SDS011;5610;52.154;9.198;2023-03-11T03:04:50;7.28;;;5.20;;
11113;SDS011;5610;52.154;9.198;2023-03-11T03:07:35;10.65;;;5.32;;
11113;SDS011;5610;52.154;9.198;2023-03-11T03:10:21;11.93;;;6.03;;
11113;SDS011;5610;52.154;9.198;2023-03-11T03:13:07;7.63;;;5.35;;
11113;SDS011;5610;52.154;9.198;2023-03-11T03:15:52;6.75;;;5.50;;
11113;SDS011;5610;52.154;9.198;2023-03-11T03:18:39;11.23;;;5.10;;
11113;SDS011;5610;52.154;9.198;2023-03-11T03:21:26;8.90;;;5.05;;
11113;SDS011;5610;52.154;9.198;2023-03-11T03:24:13;7.13;;;5.43;;
11113;SDS011;5610;52.154;9.198;2023-03-11T03:26:58;8.57;;;6.13;;
11113;SDS011;5610;52.154;9.198;2023-03-11T03:29:43;13.00;;;5.00;;
11113;SDS011;5610;52.154;9.198;2023-03-11T03:32:29;8.00;;;5.38;;
11113;SDS011;5610;52.154;9.198;2023-03-11T03:35:16;10.02;;;4.30;;
11113;SDS011;5610;52.154;9.198;2023-03-11T03:38:16;7.45;;;4.97;;
11113;SDS011;5610;52.154;9.198;2023-03-11T03:41:01;9.20;;;4.70;;
11113;SDS011;5610;52.154;9.198;2023-03-11T03:43:47;6.63;;;5.03;;
11113;SDS011;5610;52.154;9.198;2023-03-11T03:46:33;6.05;;;4.45;;
11113;SDS011;5610;52.154;9.198;2023-03-11T03:49:21;7.45;;;4.18;;
11113;SDS011;5610;52.154;9.198;2023-03-11T03:52:07;15.10;;;5.00;;
11113;SDS011;5610;52.154;9.198;2023-03-11T03:54:53;6.72;;;4.75;;
11113;SDS011;5610;52.154;9.198;2023-03-11T03:57:38;7.07;;;4.63;;
11113;SDS011;5610;52.154;9.198;2023-03-11T04:00:27;8.65;;;4.40;;
11113;SDS011;5610;52.154;9.198;2023-03-11T04:03:16;12.38;;;4.95;;
11113;SDS011;5610;52.154;9.198;2023-03-11T04:06:15;6.15;;;4.72;;
11113;SDS011;5610;52.154;9.198;2023-03-11T04:09:03;6.03;;;4.75;;
11113;SDS011;5610;52.154;9.198;2023-03-11T04:11:52;5.72;;;4.55;;
11113;SDS011;5610;52.154;9.198;2023-03-11T04:14:37;9.93;;;4.88;;
11113;SDS011;5610;52.154;9.198;2023-03-11T04:17:23;5.97;;;4.45;;
11113;SDS011;5610;52.154;9.198;2023-03-11T04:20:10;8.73;;;4.10;;
11113;SDS011;5610;52.154;9.198;2023-03-11T04:22:56;6.55;;;4.47;;
11113;SDS011;5610;52.154;9.198;2023-03-11T04:25:44;14.35;;;4.50;;
11113;SDS011;5610;52.154;9.198;2023-03-11T04:28:30;6.45;;;4.30;;
11113;SDS011;5610;52.154;9.198;2023-03-11T04:31:16;7.65;;;4.65;;
11113;SDS011;5610;52.154;9.198;2023-03-11T04:34:01;9.45;;;4.20;;
11113;SDS011;5610;52.154;9.198;2023-03-11T04:36:46;5.63;;;3.80;;
11113;SDS011;5610;52.154;9.198;2023-03-11T04:39:33;9.15;;;4.55;;
11113;SDS011;5610;52.154;9.198;2023-03-11T04:42:20;10.77;;;4.38;;
11113;SDS011;5610;52.154;9.198;2023-03-11T04:45:07;9.48;;;3.92;;
11113;SDS011;5610;52.154;9.198;2023-03-11T04:47:54;7.28;;;3.63;;
11113;SDS011;5610;52.154;9.198;2023-03-11T04:50:39;12.68;;;3.70;;
11113;SDS011;5610;52.154;9.198;2023-03-11T04:53:24;9.13;;;2.97;;
11113;SDS011;5610;52.154;9.198;2023-03-11T04:56:10;8.93;;;2.80;;
11113;SDS011;5610;52.154;9.198;2023-03-11T04:58:58;5.20;;;3.22;;
11113;SDS011;5610;52.154;9.198;2023-03-11T05:01:44;4.95;;;2.95;;
11113;SDS011;5610;52.154;9.198;2023-03-11T05:04:29;7.68;;;3.20;;
11113;SDS011;5610;52.154;9.198;2023-03-11T05:07:15;4.70;;;3.67;;
11113;SDS011;5610;52.154;9.198;2023-03-11T05:10:01;15.63;;;3.47;;
11113;SDS011;5610;52.154;9.198;2023-03-11T05:12:46;7.50;;;3.10;;
11113;SDS011;5610;52.154;9.198;2023-03-11T05:15:33;10.13;;;3.70;;
11113;SDS011;5610;52.154;9.198;2023-03-11T05:18:20;5.40;;;2.72;;
11113;SDS011;5610;52.154;9.198;2023-03-11T05:21:06;8.93;;;3.60;;
11113;SDS011;5610;52.154;9.198;2023-03-11T05:23:53;5.65;;;3.70;;
11113;SDS011;5610;52.154;9.198;2023-03-11T05:26:39;8.07;;;4.88;;
11113;SDS011;5610;52.154;9.198;2023-03-11T05:29:24;13.38;;;3.90;;
11113;SDS011;5610;52.154;9.198;2023-03-11T05:32:12;11.10;;;4.10;;
11113;SDS011;5610;52.154;9.198;2023-03-11T05:34:59;6.40;;;3.78;;
11113;SDS011;5610;52.154;9.198;2023-03-11T05:37:45;6.80;;;3.97;;
11113;SDS011;5610;52.154;9.198;2023-03-11T05:40:32;5.70;;;3.65;;
11113;SDS011;5610;52.154;9.198;2023-03-11T05:43:18;5.43;;;3.33;;
11113;SDS011;5610;52.154;9.198;2023-03-11T05:46:09;3.60;;;3.22;;
11113;SDS011;5610;52.154;9.198;2023-03-11T05:48:56;9.35;;;3.78;;
11113;SDS011;5610;52.154;9.198;2023-03-11T05:51:43;5.30;;;4.18;;
11113;SDS011;5610;52.154;9.198;2023-03-11T05:54:28;6.47;;;3.30;;
11113;SDS011;5610;52.154;9.198;2023-03-11T05:57:13;5.00;;;3.60;;
11113;SDS011;5610;52.154;9.198;2023-03-11T05:59:58;6.85;;;3.85;;
11113;SDS011;5610;52.154;9.198;2023-03-11T06:02:44;8.80;;;3.78;;
11113;SDS011;5610;52.154;9.198;2023-03-11T06:05:34;5.38;;;2.92;;
11113;SDS011;5610;52.154;9.198;2023-03-11T06:08:19;9.48;;;3.97;;
11113;SDS011;5610;52.154;9.198;2023-03-11T06:11:05;5.30;;;2.80;;
11113;SDS011;5610;52.154;9.198;2023-03-11T06:13:54;7.28;;;2.88;;
11113;SDS011;5610;52.154;9.198;2023-03-11T06:16:44;4.50;;;2.55;;
11113;SDS011;5610;52.154;9.198;2023-03-11T06:19:29;7.38;;;3.15;;
11113;SDS011;5610;52.154;9.198;2023-03-11T06:22:16;8.75;;;3.20;;
11113;SDS011;5610;52.154;9.198;2023-03-11T06:25:01;5.53;;;2.97;;
11113;SDS011;5610;52.154;9.198;2023-03-11T06:27:49;4.13;;;2.65;;
11113;SDS011;5610;52.154;9.198;2023-03-11T06:30:37;4.25;;;2.90;;
11113;SDS011;5610;52.154;9.198;2023-03-11T06:33:27;3.50;;;2.97;;
11113;SDS011;5610;52.154;9.198;2023-03-11T06:36:13;4.93;;;2.30;;
11113;SDS011;5610;52.154;9.198;2023-03-11T06:39:00;4.88;;;3.58;;
11113;SDS011;5610;52.154;9.198;2023-03-11T06:41:47;4.18;;;2.63;;
11113;SDS011;5610;52.154;9.198;2023-03-11T06:44:33;9.70;;;3.00;;
11113;SDS011;5610;52.154;9.198;2023-03-11T06:47:18;3.05;;;2.20;;
11113;SDS011;5610;52.154;9.198;2023-03-11T06:50:05;10.68;;;2.80;;
11113;SDS011;5610;52.154;9.198;2023-03-11T06:52:52;4.03;;;2.28;;
11113;SDS011;5610;52.154;9.198;2023-03-11T06:55:38;4.25;;;2.10;;
11113;SDS011;5610;52.154;9.198;2023-03-11T06:58:24;4.13;;;3.38;;
11113;SDS011;5610;52.154;9.198;2023-03-11T07:01:10;5.50;;;2.28;;
11113;SDS011;5610;52.154;9.198;2023-03-11T07:03:56;3.33;;;2.17;;
11113;SDS011;5610;52.154;9.198;2023-03-11T07:06:43;4.97;;;2.50;;
11113;SDS011;5610;52.154;9.198;2023-03-11T07:09:34;5.93;;;2.50;;
11113;SDS011;5610;52.154;9.198;2023-03-11T07:12:22;19.30;;;13.88;;
11113;SDS011;5610;52.154;9.198;2023-03-11T07:15:09;16.00;;;7.68;;
11113;SDS011;5610;52.154;9.198;2023-03-11T07:17:54;9.20;;;5.07;;
11113;SDS011;5610;52.154;9.198;2023-03-11T07:20:40;9.48;;;6.25;;
11113;SDS011;5610;52.154;9.198;2023-03-11T07:23:25;7.50;;;3.63;;
11113;SDS011;5610;52.154;9.198;2023-03-11T07:26:11;4.22;;;2.75;;
11113;SDS011;5610;52.154;9.198;2023-03-11T07:28:59;5.35;;;3.03;;
11113;SDS011;5610;52.154;9.198;2023-03-11T07:31:45;4.35;;;2.90;;
11113;SDS011;5610;52.154;9.198;2023-03-11T07:34:30;3.60;;;2.83;;
11113;SDS011;5610;52.154;9.198;2023-03-11T07:37:15;3.83;;;3.08;;
11113;SDS011;5610;52.154;9.198;2023-03-11T07:40:01;5.30;;;2.78;;
11113;SDS011;5610;52.154;9.198;2023-03-11T07:42:46;4.28;;;2.53;;
11113;SDS011;5610;52.154;9.198;2023-03-11T07:45:34;6.63;;;2.28;;
11113;SDS011;5610;52.154;9.198;2023-03-11T07:48:19;3.45;;;2.42;;
11113;SDS011;5610;52.154;9.198;2023-03-11T07:51:05;3.75;;;2.17;;
11113;SDS011;5610;52.154;9.198;2023-03-11T07:53:51;4.47;;;2.15;;
11113;SDS011;5610;52.154;9.198;2023-03-11T07:56:37;3.95;;;1.70;;
11113;SDS011;5610;52.154;9.198;2023-03-11T07:59:23;5.45;;;3.15;;
11113;SDS011;5610;52.154;9.198;2023-03-11T08:02:10;11.57;;;5.97;;
11113;SDS011;5610;52.154;9.198;2023-03-11T08:04:55;4.47;;;3.55;;
11113;SDS011;5610;52.154;9.198;2023-03-11T08:07:41;11.23;;;3.30;;
11113;SDS011;5610;52.154;9.198;2023-03-11T08:10:26;9.85;;;3.67;;
11113;SDS011;5610;52.154;9.198;2023-03-11T08:13:11;7.93;;;4.55;;
11113;SDS011;5610;52.154;9.198;2023-03-11T08:15:57;5.15;;;3.00;;
11113;SDS011;5610;52.154;9.198;2023-03-11T08:18:43;5.43;;;2.67;;
11113;SDS011;5610;52.154;9.198;2023-03-11T08:21:30;10.75;;;4.72;;
11113;SDS011;5610;52.154;9.198;2023-03-11T08:24:15;8.30;;;4.03;;
11113;SDS011;5610;52.154;9.198;2023-03-11T08:27:00;6.70;;;3.88;;
11113;SDS011;5610;52.154;9.198;2023-03-11T08:29:46;3.47;;;2.90;;
11113;SDS011;5610;52.154;9.198;2023-03-11T08:32:31;5.05;;;3.75;;
11113;SDS011;5610;52.154;9.198;2023-03-11T08:35:18;6.70;;;2.75;;
11113;SDS011;5610;52.154;9.198;2023-03-11T08:38:03;5.70;;;2.10;;
11113;SDS011;5610;52.154;9.198;2023-03-11T08:40:49;5.88;;;3.22;;
11113;SDS011;5610;52.154;9.198;2023-03-11T08:43:34;2.85;;;2.15;;
11113;SDS011;5610;52.154;9.198;2023-03-11T08:46:22;3.53;;;2.30;;
11113;SDS011;5610;52.154;9.198;2023-03-11T08:49:08;2.30;;;2.10;;
11113;SDS011;5610;52.154;9.198;2023-03-11T08:51:55;7.00;;;2.40;;
11113;SDS011;5610;52.154;9.198;2023-03-11T08:54:40;5.88;;;2.58;;
11113;SDS011;5610;52.154;9.198;2023-03-11T08:57:25;3.40;;;2.78;;
11113;SDS011;5610;52.154;9.198;2023-03-11T09:00:11;3.45;;;2.70;;
11113;SDS011;5610;52.154;9.198;2023-03-11T09:02:57;5.45;;;2.97;;
11113;SDS011;5610;52.154;9.198;2023-03-11T09:05:42;3.57;;;2.07;;
11113;SDS011;5610;52.154;9.198;2023-03-11T09:08:29;8.50;;;2.92;;
11113;SDS011;5610;52.154;9.198;2023-03-11T09:11:15;5.72;;;3.50;;
11113;SDS011;5610;52.154;9.198;2023-03-11T09:14:01;9.90;;;3.40;;
11113;SDS011;5610;52.154;9.198;2023-03-11T09:16:47;5.90;;;3.53;;
11113;SDS011;5610;52.154;9.198;2023-03-11T09:19:32;5.80;;;3.57;;
11113;SDS011;5610;52.154;9.198;2023-03-11T09:22:17;5.37;;;3.50;;
11113;SDS011;5610;52.154;9.198;2023-03-11T09:25:04;11.63;;;4.93;;
11113;SDS011;5610;52.154;9.198;2023-03-11T09:27:50;8.70;;;4.63;;
11113;SDS011;5610;52.154;9.198;2023-03-11T09:30:35;6.60;;;4.20;;
11113;SDS011;5610;52.154;9.198;2023-03-11T09:33:21;5.77;;;4.60;;
11113;SDS011;5610;52.154;9.198;2023-03-11T09:36:06;7.40;;;4.47;;
11113;SDS011;5610;52.154;9.198;2023-03-11T09:38:55;8.30;;;3.63;;
11113;SDS011;5610;52.154;9.198;2023-03-11T09:41:44;5.77;;;3.77;;
11113;SDS011;5610;52.154;9.198;2023-03-11T09:44:35;5.30;;;4.10;;
11113;SDS011;5610;52.154;9.198;2023-03-11T09:47:33;8.67;;;2.50;;
11113;SDS011;5610;52.154;9.198;2023-03-11T09:50:31;5.70;;;4.33;;
11113;SDS011;5610;52.154;9.198;2023-03-11T09:53:25;9.00;;;5.47;;
11113;SDS011;5610;52.154;9.198;2023-03-11T09:56:17;6.83;;;3.50;;
11113;SDS011;5610;52.154;9.198;2023-03-11T09:59:08;8.47;;;4.97;;
11113;SDS011;5610;52.154;9.198;2023-03-11T10:02:00;5.97;;;3.00;;
11113;SDS011;5610;52.154;9.198;2023-03-11T10:04:49;4.20;;;2.80;;
11113;SDS011;5610;52.154;9.198;2023-03-11T10:07:38;3.93;;;2.00;;
11113;SDS011;5610;52.154;9.198;2023-03-11T10:10:25;3.00;;;2.10;;
11113;SDS011;5610;52.154;9.198;2023-03-11T10:13:15;5.60;;;3.20;;
11113;SDS011;5610;52.154;9.198;2023-03-11T10:16:10;4.30;;;2.20;;
11113;SDS011;5610;52.154;9.198;2023-03-11T10:19:03;6.50;;;2.80;;
11113;SDS011;5610;52.154;9.198;2023-03-11T10:21:55;6.77;;;2.60;;
11113;SDS011;5610;52.154;9.198;2023-03-11T10:24:55;4.27;;;3.07;;
11113;SDS011;5610;52.154;9.198;2023-03-11T10:27:47;5.70;;;3.37;;
11113;SDS011;5610;52.154;9.198;2023-03-11T10:30:36;3.13;;;1.60;;
11113;SDS011;5610;52.154;9.198;2023-03-11T10:33:29;5.47;;;2.17;;
11113;SDS011;5610;52.154;9.198;2023-03-11T10:36:21;6.70;;;2.40;;
11113;SDS011;5610;52.154;9.198;2023-03-11T10:39:09;3.97;;;2.23;;
11113;SDS011;5610;52.154;9.198;2023-03-11T10:41:56;5.77;;;2.07;;
11113;SDS011;5610;52.154;9.198;2023-03-11T10:44:44;5.57;;;2.47;;
11113;SDS011;5610;52.154;9.198;2023-03-11T10:47:29;8.80;;;2.77;;
11113;SDS011;5610;52.154;9.198;2023-03-11T10:50:16;3.57;;;1.60;;
11113;SDS011;5610;52.154;9.198;2023-03-11T10:53:04;6.10;;;2.37;;
11113;SDS011;5610;52.154;9.198;2023-03-11T10:55:52;6.30;;;2.23;;
11113;SDS011;5610;52.154;9.198;2023-03-11T10:58:39;4.30;;;2.00;;
11113;SDS011;5610;52.154;9.198;2023-03-11T11:01:32;5.23;;;2.30;;
11113;SDS011;5610;52.154;9.198;2023-03-11T11:04:22;5.20;;;2.30;;
11113;SDS011;5610;52.154;9.198;2023-03-11T11:07:20;3.90;;;2.20;;
11113;SDS011;5610;52.154;9.198;2023-03-11T11:10:13;10.23;;;2.17;;
11113;SDS011;5610;52.154;9.198;2023-03-11T11:13:01;3.03;;;1.80;;
11113;SDS011;5610;52.154;9.198;2023-03-11T11:16:00;3.67;;;1.47;;
11113;SDS011;5610;52.154;9.198;2023-03-11T11:18:47;3.53;;;1.93;;
11113;SDS011;5610;52.154;9.198;2023-03-11T11:21:35;2.50;;;1.43;;
11113;SDS011;5610;52.154;9.198;2023-03-11T11:24:23;4.07;;;1.97;;
11113;SDS011;5610;52.154;9.198;2023-03-11T11:27:17;4.30;;;2.70;;
11113;SDS011;5610;52.154;9.198;2023-03-11T11:30:12;4.50;;;1.50;;
11113;SDS011;5610;52.154;9.198;2023-03-11T11:36:10;4.57;;;1.97;;
11113;SDS011;5610;52.154;9.198;2023-03-11T11:38:59;7.60;;;1.87;;
11113;SDS011;5610;52.154;9.198;2023-03-11T11:41:48;4.50;;;2.00;;
11113;SDS011;5610;52.154;9.198;2023-03-11T11:44:34;6.10;;;2.20;;
11113;SDS011;5610;52.154;9.198;2023-03-11T11:47:20;3.10;;;1.83;;
11113;SDS011;5610;52.154;9.198;2023-03-11T11:50:11;3.20;;;1.90;;
11113;SDS011;5610;52.154;9.198;2023-03-11T11:53:04;3.57;;;1.90;;
11113;SDS011;5610;52.154;9.198;2023-03-11T11:56:00;3.30;;;1.70;;
11113;SDS011;5610;52.154;9.198;2023-03-11T11:58:47;4.17;;;1.77;;
11113;SDS011;5610;52.154;9.198;2023-03-11T12:01:35;4.73;;;2.13;;
11113;SDS011;5610;52.154;9.198;2023-03-11T12:04:28;3.83;;;2.10;;
11113;SDS011;5610;52.154;9.198;2023-03-11T12:07:28;4.83;;;1.93;;
11113;SDS011;5610;52.154;9.198;2023-03-11T12:10:25;7.93;;;1.90;;
11113;SDS011;5610;52.154;9.198;2023-03-11T12:13:17;5.53;;;2.00;;
11113;SDS011;5610;52.154;9.198;2023-03-11T12:16:17;3.73;;;1.73;;
11113;SDS011;5610;52.154;9.198;2023-03-11T12:19:32;2.40;;;1.73;;
11113;SDS011;5610;52.154;9.198;2023-03-11T12:25:57;3.60;;;1.70;;
11113;SDS011;5610;52.154;9.198;2023-03-11T12:28:52;7.30;;;1.80;;
11113;SDS011;5610;52.154;9.198;2023-03-11T12:31:40;3.23;;;1.77;;
11113;SDS011;5610;52.154;9.198;2023-03-11T12:34:27;4.70;;;1.80;;
11113;SDS011;5610;52.154;9.198;2023-03-11T12:37:17;4.30;;;2.07;;
11113;SDS011;5610;52.154;9.198;2023-03-11T12:47:01;5.53;;;2.00;;
11113;SDS011;5610;52.154;9.198;2023-03-11T12:53:22;6.43;;;2.27;;
11113;SDS011;5610;52.154;9.198;2023-03-11T12:56:27;5.17;;;1.90;;
11113;SDS011;5610;52.154;9.198;2023-03-11T12:59:33;2.93;;;1.77;;
11113;SDS011;5610;52.154;9.198;2023-03-11T13:05:50;3.07;;;1.60;;
11113;SDS011;5610;52.154;9.198;2023-03-11T13:08:44;5.40;;;1.40;;
11113;SDS011;5610;52.154;9.198;2023-03-11T13:11:35;4.13;;;1.63;;
11113;SDS011;5610;52.154;9.198;2023-03-11T13:14:27;4.47;;;1.80;;
11113;SDS011;5610;52.154;9.198;2023-03-11T13:17:24;5.13;;;1.90;;
11113;SDS011;5610;52.154;9.198;2023-03-11T13:23:32;4.47;;;2.50;;
11113;SDS011;5610;52.154;9.198;2023-03-11T13:32:43;5.53;;;1.80;;
11113;SDS011;5610;52.154;9.198;2023-03-11T13:36:11;3.50;;;1.60;;
11113;SDS011;5610;52.154;9.198;2023-03-11T13:39:09;3.37;;;1.57;;
11113;SDS011;5610;52.154;9.198;2023-03-11T13:42:13;3.67;;;1.87;;
11113;SDS011;5610;52.154;9.198;2023-03-11T13:45:06;4.87;;;1.67;;
11113;SDS011;5610;52.154;9.198;2023-03-11T13:47:57;3.60;;;1.53;;
11113;SDS011;5610;52.154;9.198;2023-03-11T13:50:48;4.70;;;2.57;;
11113;SDS011;5610;52.154;9.198;2023-03-11T13:53:39;7.57;;;2.33;;
11113;SDS011;5610;52.154;9.198;2023-03-11T13:56:30;4.07;;;1.80;;
11113;SDS011;5610;52.154;9.198;2023-03-11T13:59:21;4.20;;;2.40;;
11113;SDS011;5610;52.154;9.198;2023-03-11T14:02:13;4.00;;;1.80;;
11113;SDS011;5610;52.154;9.198;2023-03-11T14:05:02;2.97;;;1.50;;
11113;SDS011;5610;52.154;9.198;2023-03-11T14:07:50;4.00;;;1.70;;
11113;SDS011;5610;52.154;9.198;2023-03-11T14:10:39;3.73;;;1.80;;
11113;SDS011;5610;52.154;9.198;2023-03-11T14:13:37;4.37;;;1.67;;
11113;SDS011;5610;52.154;9.198;2023-03-11T14:16:26;4.73;;;1.50;;
11113;SDS011;5610;52.154;9.198;2023-03-11T14:19:17;5.10;;;1.23;;
11113;SDS011;5610;52.154;9.198;2023-03-11T14:22:06;3.80;;;1.77;;
11113;SDS011;5610;52.154;9.198;2023-03-11T14:24:51;4.10;;;1.70;;
11113;SDS011;5610;52.154;9.198;2023-03-11T14:27:38;3.37;;;1.40;;
11113;SDS011;5610;52.154;9.198;2023-03-11T14:30:25;3.90;;;1.37;;
11113;SDS011;5610;52.154;9.198;2023-03-11T14:33:19;3.47;;;1.50;;
11113;SDS011;5610;52.154;9.198;2023-03-11T14:36:09;6.10;;;1.77;;
11113;SDS011;5610;52.154;9.198;2023-03-11T14:38:58;4.13;;;1.70;;
11113;SDS011;5610;52.154;9.198;2023-03-11T14:41:43;9.87;;;4.07;;
11113;SDS011;5610;52.154;9.198;2023-03-11T14:44:31;5.83;;;2.10;;
11113;SDS011;5610;52.154;9.198;2023-03-11T14:47:20;2.33;;;1.53;;
11113;SDS011;5610;52.154;9.198;2023-03-11T14:50:15;6.13;;;2.50;;
11113;SDS011;5610;52.154;9.198;2023-03-11T14:53:03;2.57;;;1.87;;
11113;SDS011;5610;52.154;9.198;2023-03-11T14:55:54;4.50;;;2.00;;
11113;SDS011;5610;52.154;9.198;2023-03-11T14:58:41;3.40;;;1.90;;
11113;SDS011;5610;52.154;9.198;2023-03-11T15:01:31;4.30;;;2.20;;
11113;SDS011;5610;52.154;9.198;2023-03-11T15:04:21;4.70;;;1.93;;
11113;SDS011;5610;52.154;9.198;2023-03-11T15:07:18;5.20;;;2.57;;
11113;SDS011;5610;52.154;9.198;2023-03-11T15:10:06;3.83;;;1.50;;
11113;SDS011;5610;52.154;9.198;2023-03-11T15:13:03;3.93;;;1.83;;
11113;SDS011;5610;52.154;9.198;2023-03-11T15:15:54;3.90;;;1.70;;
11113;SDS011;5610;52.154;9.198;2023-03-11T15:18:41;3.20;;;1.93;;
11113;SDS011;5610;52.154;9.198;2023-03-11T15:21:26;2.57;;;1.70;;
11113;SDS011;5610;52.154;9.198;2023-03-11T15:24:14;4.37;;;1.73;;
11113;SDS011;5610;52.154;9.198;2023-03-11T15:27:04;3.70;;;2.00;;
11113;SDS011;5610;52.154;9.198;2023-03-11T15:29:50;5.30;;;1.77;;
11113;SDS011;5610;52.154;9.198;2023-03-11T15:32:37;4.37;;;1.63;;
11113;SDS011;5610;52.154;9.198;2023-03-11T15:35:25;3.53;;;1.43;;
11113;SDS011;5610;52.154;9.198;2023-03-11T15:38:16;5.83;;;1.77;;
11113;SDS011;5610;52.154;9.198;2023-03-11T15:41:03;5.33;;;2.00;;
11113;SDS011;5610;52.154;9.198;2023-03-11T15:43:49;5.50;;;1.93;;
11113;SDS011;5610;52.154;9.198;2023-03-11T15:46:34;2.57;;;1.73;;
11113;SDS011;5610;52.154;9.198;2023-03-11T15:49:20;4.30;;;2.10;;
11113;SDS011;5610;52.154;9.198;2023-03-11T15:52:06;2.90;;;1.90;;
11113;SDS011;5610;52.154;9.198;2023-03-11T15:54:52;3.37;;;1.80;;
11113;SDS011;5610;52.154;9.198;2023-03-11T15:57:37;2.50;;;1.80;;
11113;SDS011;5610;52.154;9.198;2023-03-11T16:00:24;3.07;;;1.70;;
11113;SDS011;5610;52.154;9.198;2023-03-11T16:03:09;2.00;;;1.70;;
11113;SDS011;5610;52.154;9.198;2023-03-11T16:05:55;1.70;;;1.60;;
11113;SDS011;5610;52.154;9.198;2023-03-11T16:08:41;5.57;;;2.50;;
11113;SDS011;5610;52.154;9.198;2023-03-11T16:11:27;3.07;;;2.13;;
11113;SDS011;5610;52.154;9.198;2023-03-11T16:14:16;3.03;;;2.20;;
11113;SDS011;5610;52.154;9.198;2023-03-11T16:17:02;3.63;;;1.83;;
11113;SDS011;5610;52.154;9.198;2023-03-11T16:19:48;3.60;;;2.07;;
11113;SDS011;5610;52.154;9.198;2023-03-11T16:22:33;4.50;;;1.93;;
11113;SDS011;5610;52.154;9.198;2023-03-11T16:25:23;4.33;;;2.33;;
11113;SDS011;5610;52.154;9.198;2023-03-11T16:28:11;4.97;;;2.10;;
11113;SDS011;5610;52.154;9.198;2023-03-11T16:30:58;5.53;;;2.10;;
11113;SDS011;5610;52.154;9.198;2023-03-11T16:33:43;7.17;;;4.80;;
11113;SDS011;5610;52.154;9.198;2023-03-11T16:36:28;4.70;;;4.17;;
11113;SDS011;5610;52.154;9.198;2023-03-11T16:39:14;3.73;;;2.60;;
11113;SDS011;5610;52.154;9.198;2023-03-11T16:42:00;5.03;;;2.33;;
11113;SDS011;5610;52.154;9.198;2023-03-11T16:44:46;4.67;;;2.77;;
11113;SDS011;5610;52.154;9.198;2023-03-11T16:47:31;5.63;;;3.53;;
11113;SDS011;5610;52.154;9.198;2023-03-11T16:50:16;4.10;;;3.13;;
11113;SDS011;5610;52.154;9.198;2023-03-11T16:53:03;9.63;;;4.47;;
11113;SDS011;5610;52.154;9.198;2023-03-11T16:55:49;7.50;;;3.90;;
11113;SDS011;5610;52.154;9.198;2023-03-11T16:58:36;8.37;;;4.37;;
11113;SDS011;5610;52.154;9.198;2023-03-11T17:01:21;8.63;;;5.77;;
11113;SDS011;5610;52.154;9.198;2023-03-11T17:04:07;7.87;;;6.23;;
11113;SDS011;5610;52.154;9.198;2023-03-11T17:06:53;8.67;;;5.77;;
11113;SDS011;5610;52.154;9.198;2023-03-11T17:09:38;4.93;;;3.93;;
11113;SDS011;5610;52.154;9.198;2023-03-11T17:12:23;4.87;;;3.73;;
11113;SDS011;5610;52.154;9.198;2023-03-11T17:15:10;4.67;;;4.00;;
11113;SDS011;5610;52.154;9.198;2023-03-11T17:17:55;5.40;;;3.23;;
11113;SDS011;5610;52.154;9.198;2023-03-11T17:20:40;5.27;;;3.33;;
11113;SDS011;5610;52.154;9.198;2023-03-11T17:23:27;6.23;;;3.87;;
11113;SDS011;5610;52.154;9.198;2023-03-11T17:26:12;5.40;;;4.10;;
11113;SDS011;5610;52.154;9.198;2023-03-11T17:28:59;5.83;;;4.10;;
11113;SDS011;5610;52.154;9.198;2023-03-11T17:31:46;6.20;;;3.97;;
11113;SDS011;5610;52.154;9.198;2023-03-11T17:34:31;7.18;;;2.83;;
11113;SDS011;5610;52.154;9.198;2023-03-11T17:37:16;6.10;;;2.93;;